sensor_id;sensor_type;location;lat;lon;timestamp;P1;P2;P0
65556;PMS3003;52200;53.490;14.376;2022-07-04T00:00:18;20.00;18.25;12.25
65556;PMS3003;52200;53.490;14.376;2022-07-04T00:02:44;19.40;18.60;12.80
65556;PMS3003;52200;53.490;14.376;2022-07-04T00:05:11;19.20;18.20;13.00
65556;PMS3003;52200;53.490;14.376;2022-07-04T00:07:41;20.80;19.20;13.80
65556;PMS3003;52200;53.490;14.376;2022-07-04T00:10:08;21.20;20.80;13.20
65556;PMS3003;52200;53.490;14.376;2022-07-04T00:12:36;20.00;18.00;11.20
65556;PMS3003;52200;53.490;14.376;2022-07-04T00:15:02;21.00;18.75;13.00
65556;PMS3003;52200;53.490;14.376;2022-07-04T00:17:29;21.20;19.00;13.80
65556;PMS3003;52200;53.490;14.376;2022-07-04T00:19:55;22.00;20.20;14.00
65556;PMS3003;52200;53.490;14.376;2022-07-04T00:22:20;21.50;18.25;14.00
65556;PMS3003;52200;53.490;14.376;2022-07-04T00:24:46;22.25;18.00;13.25
65556;PMS3003;52200;53.490;14.376;2022-07-04T00:27:11;23.75;20.75;13.75
65556;PMS3003;52200;53.490;14.376;2022-07-04T00:29:37;23.00;20.00;13.25
65556;PMS3003;52200;53.490;14.376;2022-07-04T00:32:02;22.25;19.25;14.00
65556;PMS3003;52200;53.490;14.376;2022-07-04T00:34:28;25.20;21.80;14.00
65556;PMS3003;52200;53.490;14.376;2022-07-04T00:36:54;20.75;17.00;11.50
65556;PMS3003;52200;53.490;14.376;2022-07-04T00:39:19;19.75;16.75;12.00
65556;PMS3003;52200;53.490;14.376;2022-07-04T00:41:45;18.50;15.75;12.00
65556;PMS3003;52200;53.490;14.376;2022-07-04T00:44:11;20.20;16.60;11.40
65556;PMS3003;52200;53.490;14.376;2022-07-04T00:46:38;20.20;17.00;10.80
65556;PMS3003;52200;53.490;14.376;2022-07-04T00:49:05;16.80;13.80;9.60
65556;PMS3003;52200;53.490;14.376;2022-07-04T00:51:32;16.00;13.20;8.20
65556;PMS3003;52200;53.490;14.376;2022-07-04T00:53:57;18.20;16.00;11.40
65556;PMS3003;52200;53.490;14.376;2022-07-04T00:56:24;18.20;14.20;9.80
65556;PMS3003;52200;53.490;14.376;2022-07-04T00:58:50;19.40;14.80;10.00
65556;PMS3003;52200;53.490;14.376;2022-07-04T01:01:18;18.20;14.80;10.40
65556;PMS3003;52200;53.490;14.376;2022-07-04T01:03:46;19.40;16.60;11.40
65556;PMS3003;52200;53.490;14.376;2022-07-04T01:06:13;21.40;16.20;10.60
65556;PMS3003;52200;53.490;14.376;2022-07-04T01:08:41;18.00;14.00;10.00
65556;PMS3003;52200;53.490;14.376;2022-07-04T01:11:08;17.20;14.00;10.00
65556;PMS3003;52200;53.490;14.376;2022-07-04T01:13:34;17.00;13.80;9.60
65556;PMS3003;52200;53.490;14.376;2022-07-04T01:16:01;18.00;14.00;9.00
65556;PMS3003;52200;53.490;14.376;2022-07-04T01:18:27;16.60;13.00;10.00
65556;PMS3003;52200;53.490;14.376;2022-07-04T01:20:53;20.25;13.00;9.75
65556;PMS3003;52200;53.490;14.376;2022-07-04T01:23:19;17.00;14.00;11.00
65556;PMS3003;52200;53.490;14.376;2022-07-04T01:25:44;17.75;14.00;10.75
65556;PMS3003;52200;53.490;14.376;2022-07-04T01:28:10;18.40;14.00;9.00
65556;PMS3003;52200;53.490;14.376;2022-07-04T01:30:36;16.50;12.75;10.50
65556;PMS3003;52200;53.490;14.376;2022-07-04T01:33:03;17.20;14.00;10.60
65556;PMS3003;52200;53.490;14.376;2022-07-04T01:35:29;17.40;14.00;10.60
65556;PMS3003;52200;53.490;14.376;2022-07-04T01:37:56;19.40;16.40;11.60
65556;PMS3003;52200;53.490;14.376;2022-07-04T01:40:21;16.40;13.60;9.80
65556;PMS3003;52200;53.490;14.376;2022-07-04T01:42:47;18.00;13.75;10.00
65556;PMS3003;52200;53.490;14.376;2022-07-04T01:45:12;15.25;12.00;8.50
65556;PMS3003;52200;53.490;14.376;2022-07-04T01:47:38;17.00;13.00;9.75
65556;PMS3003;52200;53.490;14.376;2022-07-04T01:50:05;18.00;14.80;10.00
65556;PMS3003;52200;53.490;14.376;2022-07-04T01:52:32;19.20;14.40;10.80
65556;PMS3003;52200;53.490;14.376;2022-07-04T01:54:58;18.20;15.00;11.00
65556;PMS3003;52200;53.490;14.376;2022-07-04T01:57:24;18.00;14.00;10.25
65556;PMS3003;52200;53.490;14.376;2022-07-04T01:59:49;16.25;12.75;9.50
65556;PMS3003;52200;53.490;14.376;2022-07-04T02:02:33;21.40;17.20;13.00
65556;PMS3003;52200;53.490;14.376;2022-07-04T02:04:59;18.25;15.50;11.25
65556;PMS3003;52200;53.490;14.376;2022-07-04T02:07:24;19.00;15.75;11.50
65556;PMS3003;52200;53.490;14.376;2022-07-04T02:09:50;21.50;17.00;13.00
65556;PMS3003;52200;53.490;14.376;2022-07-04T02:12:15;18.25;15.00;11.00
65556;PMS3003;52200;53.490;14.376;2022-07-04T02:15:00;18.40;14.60;10.80
65556;PMS3003;52200;53.490;14.376;2022-07-04T02:17:25;20.00;16.50;11.00
65556;PMS3003;52200;53.490;14.376;2022-07-04T02:19:51;18.00;15.25;11.50
65556;PMS3003;52200;53.490;14.376;2022-07-04T02:22:17;17.50;14.50;11.00
65556;PMS3003;52200;53.490;14.376;2022-07-04T02:24:42;19.50;15.50;11.00
65556;PMS3003;52200;53.490;14.376;2022-07-04T02:27:08;20.00;16.50;12.00
65556;PMS3003;52200;53.490;14.376;2022-07-04T02:29:34;18.00;15.25;11.75
65556;PMS3003;52200;53.490;14.376;2022-07-04T02:32:00;20.80;15.00;11.20
65556;PMS3003;52200;53.490;14.376;2022-07-04T02:34:25;18.25;14.75;10.50
65556;PMS3003;52200;53.490;14.376;2022-07-04T02:36:51;19.00;15.75;11.00
65556;PMS3003;52200;53.490;14.376;2022-07-04T02:39:16;20.00;17.00;12.00
65556;PMS3003;52200;53.490;14.376;2022-07-04T02:41:42;20.75;17.25;11.50
65556;PMS3003;52200;53.490;14.376;2022-07-04T02:44:08;18.00;14.00;11.00
65556;PMS3003;52200;53.490;14.376;2022-07-04T02:46:34;20.20;16.60;11.80
65556;PMS3003;52200;53.490;14.376;2022-07-04T02:49:00;20.25;16.00;12.50
65556;PMS3003;52200;53.490;14.376;2022-07-04T02:51:26;18.60;15.40;10.80
65556;PMS3003;52200;53.490;14.376;2022-07-04T02:53:52;20.75;17.50;11.75
65556;PMS3003;52200;53.490;14.376;2022-07-04T02:56:18;21.20;17.00;10.60
65556;PMS3003;52200;53.490;14.376;2022-07-04T02:58:43;19.75;15.50;11.00
65556;PMS3003;52200;53.490;14.376;2022-07-04T03:01:09;20.00;17.00;11.50
65556;PMS3003;52200;53.490;14.376;2022-07-04T03:03:35;19.60;15.60;11.60
65556;PMS3003;52200;53.490;14.376;2022-07-04T03:06:01;17.50;14.50;10.25
65556;PMS3003;52200;53.490;14.376;2022-07-04T03:08:26;18.00;15.00;10.75
65556;PMS3003;52200;53.490;14.376;2022-07-04T03:10:52;17.25;14.75;10.50
65556;PMS3003;52200;53.490;14.376;2022-07-04T03:13:18;19.00;15.25;11.00
65556;PMS3003;52200;53.490;14.376;2022-07-04T03:15:44;24.60;19.80;13.00
65556;PMS3003;52200;53.490;14.376;2022-07-04T03:18:10;22.00;19.00;13.00
65556;PMS3003;52200;53.490;14.376;2022-07-04T03:20:35;19.50;16.25;12.75
65556;PMS3003;52200;53.490;14.376;2022-07-04T03:23:01;19.25;15.50;12.00
65556;PMS3003;52200;53.490;14.376;2022-07-04T03:25:26;20.25;16.25;12.00
65556;PMS3003;52200;53.490;14.376;2022-07-04T03:27:52;18.50;15.00;11.00
65556;PMS3003;52200;53.490;14.376;2022-07-04T03:30:17;17.75;14.00;10.50
65556;PMS3003;52200;53.490;14.376;2022-07-04T03:32:43;24.00;19.00;12.75
65556;PMS3003;52200;53.490;14.376;2022-07-04T03:35:08;18.75;15.00;10.00
65556;PMS3003;52200;53.490;14.376;2022-07-04T03:37:34;18.00;15.00;9.50
65556;PMS3003;52200;53.490;14.376;2022-07-04T03:40:00;18.50;15.50;11.25
65556;PMS3003;52200;53.490;14.376;2022-07-04T03:42:25;18.00;15.25;11.25
65556;PMS3003;52200;53.490;14.376;2022-07-04T03:44:50;21.50;17.50;12.75
65556;PMS3003;52200;53.490;14.376;2022-07-04T03:47:17;22.40;18.40;14.00
65556;PMS3003;52200;53.490;14.376;2022-07-04T03:49:43;25.50;20.00;13.00
65556;PMS3003;52200;53.490;14.376;2022-07-04T03:52:08;22.50;19.00;15.00
65556;PMS3003;52200;53.490;14.376;2022-07-04T03:54:34;23.25;19.50;12.50
65556;PMS3003;52200;53.490;14.376;2022-07-04T03:56:59;20.25;17.00;13.00
65556;PMS3003;52200;53.490;14.376;2022-07-04T03:59:25;18.00;15.00;11.00
65556;PMS3003;52200;53.490;14.376;2022-07-04T04:01:50;21.25;18.00;12.00
65556;PMS3003;52200;53.490;14.376;2022-07-04T04:04:15;22.50;17.75;12.25
65556;PMS3003;52200;53.490;14.376;2022-07-04T04:06:59;22.00;19.00;13.40
65556;PMS3003;52200;53.490;14.376;2022-07-04T04:09:25;25.00;21.00;15.00
65556;PMS3003;52200;53.490;14.376;2022-07-04T04:11:51;26.50;22.00;15.00
65556;PMS3003;52200;53.490;14.376;2022-07-04T04:14:16;26.60;21.80;15.40
65556;PMS3003;52200;53.490;14.376;2022-07-04T04:16:42;28.75;24.00;17.00
65556;PMS3003;52200;53.490;14.376;2022-07-04T04:19:08;25.75;22.25;15.50
65556;PMS3003;52200;53.490;14.376;2022-07-04T04:21:34;28.60;24.80;18.00
65556;PMS3003;52200;53.490;14.376;2022-07-04T04:24:00;31.50;26.75;19.00
65556;PMS3003;52200;53.490;14.376;2022-07-04T04:26:27;29.20;24.80;17.60
65556;PMS3003;52200;53.490;14.376;2022-07-04T04:28:52;28.00;24.80;17.40
65556;PMS3003;52200;53.490;14.376;2022-07-04T04:31:18;27.75;24.00;18.00
65556;PMS3003;52200;53.490;14.376;2022-07-04T04:33:43;29.00;25.25;18.00
65556;PMS3003;52200;53.490;14.376;2022-07-04T04:36:09;25.75;22.25;16.25
65556;PMS3003;52200;53.490;14.376;2022-07-04T04:38:34;28.00;22.00;16.50
65556;PMS3003;52200;53.490;14.376;2022-07-04T04:41:00;26.50;23.50;15.25
65556;PMS3003;52200;53.490;14.376;2022-07-04T04:43:26;26.75;22.00;15.50
65556;PMS3003;52200;53.490;14.376;2022-07-04T04:45:51;26.25;22.75;16.25
65556;PMS3003;52200;53.490;14.376;2022-07-04T04:48:17;26.50;23.00;16.50
65556;PMS3003;52200;53.490;14.376;2022-07-04T04:50:42;23.25;20.75;14.75
65556;PMS3003;52200;53.490;14.376;2022-07-04T04:53:08;28.75;25.00;16.75
65556;PMS3003;52200;53.490;14.376;2022-07-04T04:55:33;24.25;21.25;15.75
65556;PMS3003;52200;53.490;14.376;2022-07-04T04:57:59;24.50;20.75;14.25
65556;PMS3003;52200;53.490;14.376;2022-07-04T05:00:24;28.00;23.75;17.25
65556;PMS3003;52200;53.490;14.376;2022-07-04T05:02:50;26.75;23.25;16.75
65556;PMS3003;52200;53.490;14.376;2022-07-04T05:05:16;25.20;21.00;15.60
65556;PMS3003;52200;53.490;14.376;2022-07-04T05:07:41;28.75;25.50;18.00
65556;PMS3003;52200;53.490;14.376;2022-07-04T05:10:07;25.00;23.00;15.75
65556;PMS3003;52200;53.490;14.376;2022-07-04T05:12:34;33.00;28.60;19.20
65556;PMS3003;52200;53.490;14.376;2022-07-04T05:15:00;27.50;23.50;16.25
65556;PMS3003;52200;53.490;14.376;2022-07-04T05:17:26;27.25;24.00;16.00
65556;PMS3003;52200;53.490;14.376;2022-07-04T05:19:51;26.75;23.75;18.00
65556;PMS3003;52200;53.490;14.376;2022-07-04T05:22:17;29.25;25.00;17.00
65556;PMS3003;52200;53.490;14.376;2022-07-04T05:24:43;33.00;29.25;18.50
65556;PMS3003;52200;53.490;14.376;2022-07-04T05:27:08;29.50;26.25;18.50
65556;PMS3003;52200;53.490;14.376;2022-07-04T05:29:34;30.40;26.40;19.40
65556;PMS3003;52200;53.490;14.376;2022-07-04T05:32:00;26.75;24.75;17.00
65556;PMS3003;52200;53.490;14.376;2022-07-04T05:34:25;31.25;28.25;19.25
65556;PMS3003;52200;53.490;14.376;2022-07-04T05:36:51;31.50;28.00;19.50
65556;PMS3003;52200;53.490;14.376;2022-07-04T05:39:16;24.25;22.00;15.25
65556;PMS3003;52200;53.490;14.376;2022-07-04T05:41:42;20.75;19.00;13.25
65556;PMS3003;52200;53.490;14.376;2022-07-04T05:44:07;25.75;24.50;17.00
65556;PMS3003;52200;53.490;14.376;2022-07-04T05:46:33;22.25;20.25;14.75
65556;PMS3003;52200;53.490;14.376;2022-07-04T05:48:58;26.50;25.00;15.25
65556;PMS3003;52200;53.490;14.376;2022-07-04T05:51:24;25.75;25.50;15.00
65556;PMS3003;52200;53.490;14.376;2022-07-04T05:53:50;23.75;23.00;15.00
65556;PMS3003;52200;53.490;14.376;2022-07-04T05:56:15;20.25;19.50;13.25
65556;PMS3003;52200;53.490;14.376;2022-07-04T05:58:41;18.75;18.75;12.50
65556;PMS3003;52200;53.490;14.376;2022-07-04T06:01:06;21.50;19.50;12.50
65556;PMS3003;52200;53.490;14.376;2022-07-04T06:03:34;18.80;18.60;11.80
65556;PMS3003;52200;53.490;14.376;2022-07-04T06:06:02;20.40;20.40;13.00
65556;PMS3003;52200;53.490;14.376;2022-07-04T06:08:30;18.40;18.20;11.60
65556;PMS3003;52200;53.490;14.376;2022-07-04T06:10:56;17.50;17.00;10.50
65556;PMS3003;52200;53.490;14.376;2022-07-04T06:13:21;16.25;15.75;10.00
65556;PMS3003;52200;53.490;14.376;2022-07-04T06:15:47;16.00;15.50;10.25
65556;PMS3003;52200;53.490;14.376;2022-07-04T06:18:13;16.50;16.50;10.75
65556;PMS3003;52200;53.490;14.376;2022-07-04T06:20:38;18.80;18.00;11.80
65556;PMS3003;52200;53.490;14.376;2022-07-04T06:23:07;16.40;16.00;10.00
65556;PMS3003;52200;53.490;14.376;2022-07-04T06:25:33;17.20;16.60;10.00
65556;PMS3003;52200;53.490;14.376;2022-07-04T06:27:59;16.00;15.60;9.40
65556;PMS3003;52200;53.490;14.376;2022-07-04T06:30:25;13.80;13.00;8.20
65556;PMS3003;52200;53.490;14.376;2022-07-04T06:32:53;15.00;15.00;9.00
65556;PMS3003;52200;53.490;14.376;2022-07-04T06:35:22;14.40;14.40;7.40
65556;PMS3003;52200;53.490;14.376;2022-07-04T06:38:09;14.60;14.00;7.80
65556;PMS3003;52200;53.490;14.376;2022-07-04T06:40:37;12.60;11.80;7.40
65556;PMS3003;52200;53.490;14.376;2022-07-04T06:43:04;13.00;12.60;8.00
65556;PMS3003;52200;53.490;14.376;2022-07-04T06:45:30;13.20;13.00;7.80
65556;PMS3003;52200;53.490;14.376;2022-07-04T06:47:55;13.00;13.00;7.00
65556;PMS3003;52200;53.490;14.376;2022-07-04T06:50:21;12.00;11.00;6.20
65556;PMS3003;52200;53.490;14.376;2022-07-04T06:52:47;12.00;12.00;7.20
65556;PMS3003;52200;53.490;14.376;2022-07-04T06:55:13;12.20;11.20;5.40
65556;PMS3003;52200;53.490;14.376;2022-07-04T06:57:39;12.00;11.00;5.25
65556;PMS3003;52200;53.490;14.376;2022-07-04T07:00:05;10.25;10.25;5.00
65556;PMS3003;52200;53.490;14.376;2022-07-04T07:02:33;10.20;10.00;6.00
65556;PMS3003;52200;53.490;14.376;2022-07-04T07:04:59;11.00;10.20;5.60
65556;PMS3003;52200;53.490;14.376;2022-07-04T07:07:25;9.25;9.00;4.00
65556;PMS3003;52200;53.490;14.376;2022-07-04T07:09:52;9.40;9.00;4.60
65556;PMS3003;52200;53.490;14.376;2022-07-04T07:12:18;10.80;10.20;4.80
65556;PMS3003;52200;53.490;14.376;2022-07-04T07:14:44;10.00;9.00;4.75
65556;PMS3003;52200;53.490;14.376;2022-07-04T07:17:09;10.25;10.00;5.00
65556;PMS3003;52200;53.490;14.376;2022-07-04T07:19:35;9.00;9.00;4.50
65556;PMS3003;52200;53.490;14.376;2022-07-04T07:22:00;10.00;9.50;5.00
65556;PMS3003;52200;53.490;14.376;2022-07-04T07:24:26;9.00;8.25;3.75
65556;PMS3003;52200;53.490;14.376;2022-07-04T07:26:55;11.00;10.00;5.40
65556;PMS3003;52200;53.490;14.376;2022-07-04T07:29:21;10.20;9.00;4.00
65556;PMS3003;52200;53.490;14.376;2022-07-04T07:31:46;7.75;7.75;4.00
65556;PMS3003;52200;53.490;14.376;2022-07-04T07:34:12;7.00;7.00;3.75
65556;PMS3003;52200;53.490;14.376;2022-07-04T07:36:37;8.75;8.00;3.00
65556;PMS3003;52200;53.490;14.376;2022-07-04T07:39:02;6.25;6.00;2.25
65556;PMS3003;52200;53.490;14.376;2022-07-04T07:41:28;8.75;7.00;3.00
65556;PMS3003;52200;53.490;14.376;2022-07-04T07:43:53;7.00;7.00;2.00
65556;PMS3003;52200;53.490;14.376;2022-07-04T07:46:19;7.00;6.75;2.50
65556;PMS3003;52200;53.490;14.376;2022-07-04T07:48:44;5.00;5.00;1.00
65556;PMS3003;52200;53.490;14.376;2022-07-04T07:51:10;6.50;5.00;1.00
65556;PMS3003;52200;53.490;14.376;2022-07-04T07:53:36;5.40;4.60;1.00
65556;PMS3003;52200;53.490;14.376;2022-07-04T07:56:01;4.50;4.50;1.25
65556;PMS3003;52200;53.490;14.376;2022-07-04T07:58:27;5.25;4.75;1.00
65556;PMS3003;52200;53.490;14.376;2022-07-04T08:00:53;5.00;4.00;1.00
65556;PMS3003;52200;53.490;14.376;2022-07-04T08:03:18;5.00;4.75;1.75
65556;PMS3003;52200;53.490;14.376;2022-07-04T08:06:02;3.00;3.00;0.20
65556;PMS3003;52200;53.490;14.376;2022-07-04T08:08:28;4.75;4.75;1.00
65556;PMS3003;52200;53.490;14.376;2022-07-04T08:10:53;3.75;3.50;0.00
65556;PMS3003;52200;53.490;14.376;2022-07-04T08:13:19;3.75;3.00;0.00
65556;PMS3003;52200;53.490;14.376;2022-07-04T08:15:44;4.00;4.00;1.00
65556;PMS3003;52200;53.490;14.376;2022-07-04T08:18:10;4.00;4.00;0.50
65556;PMS3003;52200;53.490;14.376;2022-07-04T08:20:35;3.75;3.75;0.00
65556;PMS3003;52200;53.490;14.376;2022-07-04T08:23:01;2.00;2.00;0.00
65556;PMS3003;52200;53.490;14.376;2022-07-04T08:25:27;4.00;4.00;0.25
65556;PMS3003;52200;53.490;14.376;2022-07-04T08:27:52;3.00;3.00;0.00
65556;PMS3003;52200;53.490;14.376;2022-07-04T08:30:18;3.75;3.75;0.00
65556;PMS3003;52200;53.490;14.376;2022-07-04T08:32:43;3.25;3.25;0.00
65556;PMS3003;52200;53.490;14.376;2022-07-04T08:35:09;4.50;3.50;0.00
65556;PMS3003;52200;53.490;14.376;2022-07-04T08:37:34;3.00;3.00;0.00
65556;PMS3003;52200;53.490;14.376;2022-07-04T08:40:00;3.00;3.00;0.00
65556;PMS3003;52200;53.490;14.376;2022-07-04T08:42:33;2.60;2.60;0.00
65556;PMS3003;52200;53.490;14.376;2022-07-04T08:45:02;3.80;3.80;0.00
65556;PMS3003;52200;53.490;14.376;2022-07-04T08:47:29;3.00;3.00;0.00
65556;PMS3003;52200;53.490;14.376;2022-07-04T08:50:01;2.00;2.00;0.00
65556;PMS3003;52200;53.490;14.376;2022-07-04T08:52:37;3.00;3.00;0.00
65556;PMS3003;52200;53.490;14.376;2022-07-04T08:55:04;3.60;2.80;0.00
65556;PMS3003;52200;53.490;14.376;2022-07-04T08:57:49;3.80;3.00;0.00
65556;PMS3003;52200;53.490;14.376;2022-07-04T09:00:35;3.40;3.00;0.00
65556;PMS3003;52200;53.490;14.376;2022-07-04T09:03:01;3.00;3.00;0.00
65556;PMS3003;52200;53.490;14.376;2022-07-04T09:05:28;3.00;3.00;0.00
65556;PMS3003;52200;53.490;14.376;2022-07-04T09:07:54;2.80;2.80;0.00
65556;PMS3003;52200;53.490;14.376;2022-07-04T09:10:23;2.20;2.20;0.00
65556;PMS3003;52200;53.490;14.376;2022-07-04T09:12:51;3.40;3.00;0.00
65556;PMS3003;52200;53.490;14.376;2022-07-04T09:15:17;2.80;2.80;0.00
65556;PMS3003;52200;53.490;14.376;2022-07-04T09:17:43;3.60;3.00;0.00
65556;PMS3003;52200;53.490;14.376;2022-07-04T09:20:18;2.40;2.00;0.00
65556;PMS3003;52200;53.490;14.376;2022-07-04T09:22:46;2.60;2.00;0.00
65556;PMS3003;52200;53.490;14.376;2022-07-04T09:25:14;4.00;3.80;0.00
65556;PMS3003;52200;53.490;14.376;2022-07-04T09:27:44;3.20;3.20;0.00
65556;PMS3003;52200;53.490;14.376;2022-07-04T09:30:15;3.00;3.00;0.00
65556;PMS3003;52200;53.490;14.376;2022-07-04T09:32:44;2.80;2.00;0.00
65556;PMS3003;52200;53.490;14.376;2022-07-04T09:35:21;2.60;2.60;0.00
65556;PMS3003;52200;53.490;14.376;2022-07-04T09:37:52;2.40;2.40;0.00
65556;PMS3003;52200;53.490;14.376;2022-07-04T09:40:21;3.60;3.40;0.00
65556;PMS3003;52200;53.490;14.376;2022-07-04T09:42:48;2.00;2.00;0.00
65556;PMS3003;52200;53.490;14.376;2022-07-04T09:45:14;2.25;2.25;0.00
65556;PMS3003;52200;53.490;14.376;2022-07-04T09:47:40;3.00;3.00;0.00
65556;PMS3003;52200;53.490;14.376;2022-07-04T09:52:43;3.00;3.00;0.00
65556;PMS3003;52200;53.490;14.376;2022-07-04T09:55:09;3.80;3.80;0.00
65556;PMS3003;52200;53.490;14.376;2022-07-04T09:57:35;3.00;3.00;0.00
65556;PMS3003;52200;53.490;14.376;2022-07-04T10:02:46;2.40;2.00;0.00
65556;PMS3003;52200;53.490;14.376;2022-07-04T10:05:11;3.25;3.25;0.00
65556;PMS3003;52200;53.490;14.376;2022-07-04T10:07:38;3.75;3.00;0.00
65556;PMS3003;52200;53.490;14.376;2022-07-04T10:13:01;2.00;2.00;0.00
65556;PMS3003;52200;53.490;14.376;2022-07-04T10:15:40;3.40;3.40;0.00
65556;PMS3003;52200;53.490;14.376;2022-07-04T10:18:07;2.80;2.20;0.00
65556;PMS3003;52200;53.490;14.376;2022-07-04T10:20:34;3.00;3.00;0.00
65556;PMS3003;52200;53.490;14.376;2022-07-04T10:23:00;2.00;2.00;0.00
65556;PMS3003;52200;53.490;14.376;2022-07-04T10:25:27;3.00;3.00;0.00
65556;PMS3003;52200;53.490;14.376;2022-07-04T10:27:52;3.00;3.00;0.00
65556;PMS3003;52200;53.490;14.376;2022-07-04T10:30:22;2.50;2.50;0.00
65556;PMS3003;52200;53.490;14.376;2022-07-04T10:32:54;2.60;2.60;0.00
65556;PMS3003;52200;53.490;14.376;2022-07-04T10:38:15;3.80;3.60;0.00
65556;PMS3003;52200;53.490;14.376;2022-07-04T10:40:44;4.00;4.00;0.00
65556;PMS3003;52200;53.490;14.376;2022-07-04T10:49:39;2.00;2.00;0.00
65556;PMS3003;52200;53.490;14.376;2022-07-04T10:54:15;3.00;2.20;0.00
65556;PMS3003;52200;53.490;14.376;2022-07-04T10:56:46;3.00;3.00;0.00
65556;PMS3003;52200;53.490;14.376;2022-07-04T11:17:50;2.80;2.80;0.20
65556;PMS3003;52200;53.490;14.376;2022-07-04T11:20:20;3.00;3.00;0.00
65556;PMS3003;52200;53.490;14.376;2022-07-04T11:22:47;2.20;2.00;0.00
65556;PMS3003;52200;53.490;14.376;2022-07-04T11:25:13;2.60;2.60;0.00
65556;PMS3003;52200;53.490;14.376;2022-07-04T11:27:40;2.80;2.80;0.00
65556;PMS3003;52200;53.490;14.376;2022-07-04T11:30:06;2.00;2.00;0.00
65556;PMS3003;52200;53.490;14.376;2022-07-04T11:32:34;3.00;2.60;0.00
65556;PMS3003;52200;53.490;14.376;2022-07-04T11:35:01;1.60;1.60;0.00
65556;PMS3003;52200;53.490;14.376;2022-07-04T11:37:29;2.00;2.00;0.00
65556;PMS3003;52200;53.490;14.376;2022-07-04T11:39:55;2.00;2.00;0.00
65556;PMS3003;52200;53.490;14.376;2022-07-04T11:42:40;2.00;2.00;0.00
65556;PMS3003;52200;53.490;14.376;2022-07-04T11:45:24;2.00;2.00;0.00
65556;PMS3003;52200;53.490;14.376;2022-07-04T11:47:49;2.25;2.00;0.00
65556;PMS3003;52200;53.490;14.376;2022-07-04T11:50:16;2.00;2.00;0.00
65556;PMS3003;52200;53.490;14.376;2022-07-04T11:52:45;2.20;2.00;0.00
65556;PMS3003;52200;53.490;14.376;2022-07-04T11:55:14;3.00;2.00;0.00
65556;PMS3003;52200;53.490;14.376;2022-07-04T11:57:44;2.00;2.00;0.00
65556;PMS3003;52200;53.490;14.376;2022-07-04T12:00:12;2.00;2.00;0.00
65556;PMS3003;52200;53.490;14.376;2022-07-04T12:02:42;2.40;2.40;0.00
65556;PMS3003;52200;53.490;14.376;2022-07-04T12:05:09;4.00;2.40;0.00
65556;PMS3003;52200;53.490;14.376;2022-07-04T12:07:39;3.00;3.00;0.00
65556;PMS3003;52200;53.490;14.376;2022-07-04T12:12:52;2.40;2.40;0.00
65556;PMS3003;52200;53.490;14.376;2022-07-04T12:15:47;2.00;2.00;0.00
65556;PMS3003;52200;53.490;14.376;2022-07-04T12:20:43;2.20;2.20;0.00
65556;PMS3003;52200;53.490;14.376;2022-07-04T12:23:09;2.00;2.00;0.00
65556;PMS3003;52200;53.490;14.376;2022-07-04T12:25:36;2.25;2.25;0.00
65556;PMS3003;52200;53.490;14.376;2022-07-04T12:28:07;1.40;1.40;0.00
65556;PMS3003;52200;53.490;14.376;2022-07-04T12:30:41;2.80;2.00;0.00
65556;PMS3003;52200;53.490;14.376;2022-07-04T12:33:13;1.60;1.60;0.00
65556;PMS3003;52200;53.490;14.376;2022-07-04T12:35:46;1.50;1.50;0.00
65556;PMS3003;52200;53.490;14.376;2022-07-04T12:40:50;2.20;2.20;0.00
65556;PMS3003;52200;53.490;14.376;2022-07-04T12:43:19;1.20;1.20;0.00
65556;PMS3003;52200;53.490;14.376;2022-07-04T12:48:15;2.00;2.00;0.00
65556;PMS3003;52200;53.490;14.376;2022-07-04T12:50:42;1.00;1.00;0.00
65556;PMS3003;52200;53.490;14.376;2022-07-04T12:53:08;1.20;1.20;0.00
65556;PMS3003;52200;53.490;14.376;2022-07-04T12:55:36;2.00;2.00;0.00
65556;PMS3003;52200;53.490;14.376;2022-07-04T12:58:03;4.00;4.00;0.00
65556;PMS3003;52200;53.490;14.376;2022-07-04T13:00:29;2.60;2.20;0.00
65556;PMS3003;52200;53.490;14.376;2022-07-04T13:02:54;3.50;2.75;0.00
65556;PMS3003;52200;53.490;14.376;2022-07-04T13:05:20;2.50;2.00;0.00
65556;PMS3003;52200;53.490;14.376;2022-07-04T13:07:46;3.50;2.75;0.00
65556;PMS3003;52200;53.490;14.376;2022-07-04T13:10:12;2.80;2.40;0.00
65556;PMS3003;52200;53.490;14.376;2022-07-04T13:12:37;1.00;1.00;0.00
65556;PMS3003;52200;53.490;14.376;2022-07-04T13:15:03;4.00;2.50;0.00
65556;PMS3003;52200;53.490;14.376;2022-07-04T13:17:30;3.80;3.80;0.00
65556;PMS3003;52200;53.490;14.376;2022-07-04T13:19:56;2.50;2.50;0.00
65556;PMS3003;52200;53.490;14.376;2022-07-04T13:22:22;2.00;2.00;0.00
65556;PMS3003;52200;53.490;14.376;2022-07-04T13:24:48;2.80;2.40;0.00
65556;PMS3003;52200;53.490;14.376;2022-07-04T13:27:18;4.00;3.00;0.00
65556;PMS3003;52200;53.490;14.376;2022-07-04T13:29:44;2.60;2.00;0.00
65556;PMS3003;52200;53.490;14.376;2022-07-04T13:32:10;2.40;2.40;0.00
65556;PMS3003;52200;53.490;14.376;2022-07-04T13:34:35;2.00;2.00;0.00
65556;PMS3003;52200;53.490;14.376;2022-07-04T13:37:01;3.00;3.00;0.00
65556;PMS3003;52200;53.490;14.376;2022-07-04T13:39:27;1.80;1.80;0.00
65556;PMS3003;52200;53.490;14.376;2022-07-04T13:41:53;2.00;2.00;0.00
65556;PMS3003;52200;53.490;14.376;2022-07-04T13:44:19;2.00;2.00;0.00
65556;PMS3003;52200;53.490;14.376;2022-07-04T13:46:45;2.00;1.25;0.00
65556;PMS3003;52200;53.490;14.376;2022-07-04T13:49:10;1.25;1.25;0.00
65556;PMS3003;52200;53.490;14.376;2022-07-04T13:51:36;4.00;3.00;0.00
65556;PMS3003;52200;53.490;14.376;2022-07-04T13:54:03;2.20;2.20;0.00
65556;PMS3003;52200;53.490;14.376;2022-07-04T13:56:28;2.00;2.00;0.00
65556;PMS3003;52200;53.490;14.376;2022-07-04T13:58:54;3.50;3.00;0.00
65556;PMS3003;52200;53.490;14.376;2022-07-04T14:01:21;3.00;2.00;0.00
65556;PMS3003;52200;53.490;14.376;2022-07-04T14:03:47;3.00;2.00;0.00
65556;PMS3003;52200;53.490;14.376;2022-07-04T14:06:13;2.60;2.60;0.00
65556;PMS3003;52200;53.490;14.376;2022-07-04T14:08:39;3.75;2.75;0.00
65556;PMS3003;52200;53.490;14.376;2022-07-04T14:11:05;4.00;2.75;0.00
65556;PMS3003;52200;53.490;14.376;2022-07-04T14:13:30;1.25;1.25;0.00
65556;PMS3003;52200;53.490;14.376;2022-07-04T14:15:56;1.75;1.75;0.00
65556;PMS3003;52200;53.490;14.376;2022-07-04T14:18:21;3.75;2.75;0.00
65556;PMS3003;52200;53.490;14.376;2022-07-04T14:20:47;2.20;2.20;0.00
65556;PMS3003;52200;53.490;14.376;2022-07-04T14:23:14;4.60;2.40;0.00
65556;PMS3003;52200;53.490;14.376;2022-07-04T14:26:00;2.40;2.40;0.00
65556;PMS3003;52200;53.490;14.376;2022-07-04T14:28:25;2.00;2.00;0.00
65556;PMS3003;52200;53.490;14.376;2022-07-04T14:30:51;3.00;2.25;0.00
65556;PMS3003;52200;53.490;14.376;2022-07-04T14:33:16;1.00;1.00;0.00
65556;PMS3003;52200;53.490;14.376;2022-07-04T14:35:42;2.00;2.00;0.00
65556;PMS3003;52200;53.490;14.376;2022-07-04T14:38:07;2.00;2.00;0.00